createdAt,value
2018-07-24T00:00:12.623Z,25.9
2018-07-24T00:01:02.999Z,25.9
2018-07-24T00:01:53.029Z,25.9
2018-07-24T00:02:43.090Z,25.9
2018-07-24T00:03:33.420Z,25.9
2018-07-24T00:04:22.926Z,25.9
2018-07-24T00:05:13.318Z,25.9
2018-07-24T00:06:03.643Z,25.9
2018-07-24T00:06:53.688Z,25.9
2018-07-24T00:07:43.766Z,25.9
2018-07-24T00:08:33.551Z,25.9
2018-07-24T00:09:23.057Z,25.9
2018-07-24T00:10:13.983Z,25.9
2018-07-24T00:11:04.827Z,25.9
2018-07-24T00:11:53.327Z,25.9
2018-07-24T00:12:43.374Z,25.9
2018-07-24T00:13:33.743Z,25.9
2018-07-24T00:14:23.741Z,25.9
2018-07-24T00:15:13.571Z,25.9
2018-07-24T00:16:03.927Z,25.9
2018-07-24T00:16:54.482Z,25.9
2018-07-24T00:17:44.256Z,25.9
2018-07-24T00:18:34.331Z,25.9
2018-07-24T00:19:24.382Z,25.9
2018-07-24T00:20:14.704Z,25.8
2018-07-24T00:21:04.579Z,25.9
2018-07-24T00:21:54.839Z,25.9
2018-07-24T00:22:44.320Z,25.9
2018-07-24T00:23:34.520Z,25.9
2018-07-24T00:24:24.479Z,25.9
2018-07-24T00:25:14.809Z,25.9
2018-07-24T00:26:04.902Z,25.9
2018-07-24T00:26:54.639Z,25.9
2018-07-24T00:27:44.819Z,25.9
2018-07-24T00:28:34.861Z,25.8
2018-07-24T00:29:25.115Z,25.9
2018-07-24T00:30:15.184Z,25.9
2018-07-24T00:31:05.264Z,25.9
2018-07-24T00:31:55.638Z,25.8
2018-07-24T00:32:45.700Z,25.9
2018-07-24T00:33:35.765Z,25.9
2018-07-24T00:34:25.631Z,25.9
2018-07-24T00:35:15.849Z,25.8
2018-07-24T00:36:05.952Z,25.8
2018-07-24T00:36:55.769Z,25.9
2018-07-24T00:37:45.764Z,25.9
2018-07-24T00:38:36.129Z,25.9
2018-07-24T00:39:25.622Z,25.8
2018-07-24T00:40:15.977Z,25.8
2018-07-24T00:41:06.069Z,25.8
2018-07-24T00:41:55.560Z,25.9
2018-07-24T00:42:46.457Z,25.8
2018-07-24T00:43:35.406Z,25.8
2018-07-24T00:44:26.315Z,25.8
2018-07-24T00:45:16.380Z,25.8
2018-07-24T00:46:06.769Z,25.8
2018-07-24T00:46:56.233Z,25.8
2018-07-24T00:47:46.880Z,25.8
2018-07-24T00:48:35.789Z,25.8
2018-07-24T00:49:27.048Z,25.8
2018-07-24T00:50:16.819Z,25.8
2018-07-24T00:51:07.167Z,25.8
2018-07-24T00:51:57.169Z,25.8
2018-07-24T00:52:47.250Z,25.8
2018-07-24T00:53:37.314Z,25.8
2018-07-24T00:54:26.846Z,25.8
2018-07-24T00:55:17.437Z,25.8
2018-07-24T00:56:07.241Z,25.8
2018-07-24T00:56:56.521Z,25.8
2018-07-24T00:57:46.884Z,25.8
2018-07-24T00:58:37.194Z,25.8
2018-07-24T00:59:26.421Z,25.8
2018-07-24T01:00:17.339Z,25.8
2018-07-24T01:01:07.294Z,25.8
2018-07-24T01:01:57.184Z,25.8
2018-07-24T01:02:47.549Z,25.8
2018-07-24T01:03:37.021Z,25.8
2018-07-24T01:04:28.188Z,25.8
2018-07-24T01:05:17.172Z,25.8
2018-07-24T01:06:08.282Z,25.8
2018-07-24T01:06:57.900Z,25.8
2018-07-24T01:07:48.126Z,25.8
2018-07-24T01:08:38.574Z,25.8
2018-07-24T01:09:27.794Z,25.8
2018-07-24T01:10:17.540Z,25.8
2018-07-24T01:11:07.909Z,25.8
2018-07-24T01:11:57.379Z,25.8
2018-07-24T01:12:48.021Z,25.8
2018-07-24T01:13:38.094Z,25.8
2018-07-24T01:14:28.936Z,25.8
2018-07-24T01:15:18.219Z,25.8
2018-07-24T01:16:08.134Z,25.8
2018-07-24T01:16:57.783Z,25.8
2018-07-24T01:17:48.660Z,25.8
2018-07-24T01:18:38.709Z,25.8
2018-07-24T01:19:28.517Z,25.8
2018-07-24T01:20:19.040Z,25.8
2018-07-24T01:21:08.644Z,25.8
2018-07-24T01:21:58.714Z,25.8
2018-07-24T01:22:48.768Z,25.8
2018-07-24T01:23:38.759Z,25.8
2018-07-24T01:24:28.854Z,25.8
2018-07-24T01:25:19.450Z,25.8
2018-07-24T01:26:09.793Z,25.8
2018-07-24T01:26:59.845Z,25.8
2018-07-24T01:27:49.916Z,25.8
2018-07-24T01:28:39.740Z,25.8
2018-07-24T01:29:29.748Z,25.8
2018-07-24T01:30:20.102Z,25.8
2018-07-24T01:31:09.653Z,25.8
2018-07-24T01:31:59.532Z,25.8
2018-07-24T01:32:50.057Z,25.8
2018-07-24T01:33:39.873Z,25.8
2018-07-24T01:34:30.465Z,25.8
2018-07-24T01:35:20.217Z,25.8
2018-07-24T01:36:10.364Z,25.8
2018-07-24T01:37:00.644Z,25.8
2018-07-24T01:37:50.460Z,25.8
2018-07-24T01:38:40.786Z,25.8
2018-07-24T01:39:30.839Z,25.8
2018-07-24T01:40:20.606Z,25.7
2018-07-24T01:41:10.711Z,25.8
2018-07-24T01:42:01.039Z,25.8
2018-07-24T01:42:50.349Z,25.8
2018-07-24T01:43:40.698Z,25.8
2018-07-24T01:44:30.466Z,25.8
2018-07-24T01:45:20.799Z,25.8
2018-07-24T01:46:10.044Z,25.8
2018-07-24T01:47:00.106Z,25.8
2018-07-24T01:47:50.440Z,25.8
2018-07-24T01:48:40.509Z,25.8
2018-07-24T01:49:30.580Z,25.8
2018-07-24T01:50:20.881Z,25.8
2018-07-24T01:51:10.442Z,25.7
2018-07-24T01:52:00.956Z,25.8
2018-07-24T01:52:51.339Z,25.7
2018-07-24T01:53:41.346Z,25.8
2018-07-24T01:54:31.726Z,25.7
2018-07-24T01:55:22.038Z,25.7
2018-07-24T01:56:11.882Z,25.8
2018-07-24T01:57:01.922Z,25.7
2018-07-24T01:57:52.255Z,25.7
2018-07-24T01:58:41.740Z,25.7
2018-07-24T01:59:32.089Z,25.7
2018-07-24T02:00:21.903Z,25.8
2018-07-24T02:01:12.487Z,25.7
2018-07-24T02:02:02.265Z,25.7
2018-07-24T02:02:52.614Z,25.8
2018-07-24T02:03:42.418Z,25.7
2018-07-24T02:04:32.496Z,25.7
2018-07-24T02:05:22.801Z,25.7
2018-07-24T02:06:12.626Z,25.7
2018-07-24T02:07:02.678Z,25.7
2018-07-24T02:07:53.030Z,25.7
2018-07-24T02:08:42.030Z,25.7
2018-07-24T02:09:33.165Z,25.7
2018-07-24T02:10:22.653Z,25.8
2018-07-24T02:11:13.301Z,25.7
2018-07-24T02:12:03.090Z,25.7
2018-07-24T02:12:53.404Z,25.7
2018-07-24T02:13:43.206Z,25.7
2018-07-24T02:14:33.304Z,25.7
2018-07-24T02:15:23.324Z,25.7
2018-07-24T02:16:13.699Z,25.7
2018-07-24T02:17:03.278Z,25.7
2018-07-24T02:17:53.797Z,25.7
2018-07-24T02:18:43.593Z,25.7
2018-07-24T02:19:33.934Z,25.7
2018-07-24T02:20:23.430Z,25.7
2018-07-24T02:21:13.513Z,25.7
2018-07-24T02:22:03.858Z,25.7
2018-07-24T02:22:53.626Z,25.7
2018-07-24T02:23:44.301Z,25.7
2018-07-24T02:24:34.014Z,25.7
2018-07-24T02:25:24.094Z,25.7
2018-07-24T02:26:13.865Z,25.7
2018-07-24T02:27:03.726Z,25.7
2018-07-24T02:27:54.268Z,25.7
2018-07-24T02:28:44.218Z,25.7
2018-07-24T02:29:34.213Z,25.7
2018-07-24T02:30:24.482Z,25.7
2018-07-24T02:31:14.802Z,25.7
2018-07-24T02:32:04.524Z,25.7
2018-07-24T02:32:55.031Z,25.7
2018-07-24T02:33:44.721Z,25.7
2018-07-24T02:34:34.860Z,25.7
2018-07-24T02:35:25.163Z,25.6
2018-07-24T02:36:15.249Z,25.7
2018-07-24T02:37:04.993Z,25.7
2018-07-24T02:37:54.804Z,25.7
2018-07-24T02:38:45.407Z,25.7
2018-07-24T02:39:35.456Z,25.7
2018-07-24T02:40:25.505Z,25.7
2018-07-24T02:41:15.567Z,25.7
2018-07-24T02:42:05.659Z,25.7
2018-07-24T02:42:55.443Z,25.7
2018-07-24T02:43:45.790Z,25.7
2018-07-24T02:44:35.870Z,25.7
2018-07-24T02:45:25.653Z,25.7
2018-07-24T02:46:15.706Z,25.6
2018-07-24T02:47:05.506Z,25.7
2018-07-24T02:47:56.117Z,25.7
2018-07-24T02:48:46.276Z,25.6
2018-07-24T02:49:36.244Z,25.7
2018-07-24T02:50:26.095Z,25.6
2018-07-24T02:51:15.798Z,25.7
2018-07-24T02:52:06.508Z,25.6
2018-07-24T02:52:56.527Z,25.6
2018-07-24T02:53:46.557Z,25.6
2018-07-24T02:54:36.354Z,25.6
2018-07-24T02:55:26.455Z,25.6
2018-07-24T02:56:15.123Z,25.7
2018-07-24T02:57:06.333Z,25.6
2018-07-24T02:57:56.118Z,25.6
2018-07-24T02:58:46.495Z,25.6
2018-07-24T02:59:36.723Z,25.6
2018-07-24T03:00:25.956Z,25.6
2018-07-24T03:01:16.876Z,25.6
2018-07-24T03:02:07.225Z,25.6
2018-07-24T03:02:56.992Z,25.6
2018-07-24T03:03:47.179Z,25.6
2018-07-24T03:04:37.105Z,25.6
2018-07-24T03:05:27.452Z,25.6
2018-07-24T03:06:17.513Z,25.6
2018-07-24T03:07:07.015Z,25.6
2018-07-24T03:07:57.061Z,25.6
2018-07-24T03:08:47.523Z,25.6
2018-07-24T03:09:37.514Z,25.6
2018-07-24T03:10:27.546Z,25.6
2018-07-24T03:11:17.358Z,25.6
2018-07-24T03:12:07.669Z,25.6
2018-07-24T03:12:58.061Z,25.6
2018-07-24T03:13:48.086Z,25.6
2018-07-24T03:14:38.143Z,25.6
2018-07-24T03:15:28.216Z,25.6
2018-07-24T03:16:18.624Z,25.6
2018-07-24T03:17:07.564Z,25.6
2018-07-24T03:17:58.135Z,25.6
2018-07-24T03:18:48.250Z,25.6
2018-07-24T03:19:38.313Z,25.6
2018-07-24T03:20:28.373Z,25.6
2018-07-24T03:21:18.695Z,25.6
2018-07-24T03:22:08.216Z,25.6
2018-07-24T03:22:57.955Z,25.6
2018-07-24T03:23:48.036Z,25.6
2018-07-24T03:24:38.369Z,25.6
2018-07-24T03:25:28.792Z,25.6
2018-07-24T03:26:18.798Z,25.6
2018-07-24T03:27:09.155Z,25.6
2018-07-24T03:27:58.931Z,25.6
2018-07-24T03:28:48.682Z,25.6
2018-07-24T03:29:39.078Z,25.6
2018-07-24T03:30:29.043Z,25.6
2018-07-24T03:31:18.900Z,25.6
2018-07-24T03:32:08.965Z,25.6
2018-07-24T03:32:59.003Z,25.6
2018-07-24T03:33:49.641Z,25.6
2018-07-24T03:34:39.426Z,25.6
2018-07-24T03:35:28.945Z,25.6
2018-07-24T03:36:19.306Z,25.6
2018-07-24T03:37:09.630Z,25.6
2018-07-24T03:37:59.705Z,25.6
2018-07-24T03:38:50.047Z,25.6
2018-07-24T03:39:40.618Z,25.6
2018-07-24T03:40:30.131Z,25.6
2018-07-24T03:41:19.959Z,25.6
2018-07-24T03:42:10.258Z,25.6
2018-07-24T03:43:00.050Z,25.6
2018-07-24T03:43:49.585Z,25.6
2018-07-24T03:44:40.241Z,25.6
2018-07-24T03:45:30.513Z,25.6
2018-07-24T03:46:20.404Z,25.6
2018-07-24T03:47:10.410Z,25.6
2018-07-24T03:48:00.487Z,25.6
2018-07-24T03:48:50.816Z,25.6
2018-07-24T03:49:40.594Z,25.6
2018-07-24T03:50:30.915Z,25.6
2018-07-24T03:51:20.722Z,25.6
2018-07-24T03:52:10.754Z,25.6
2018-07-24T03:53:00.357Z,25.6
2018-07-24T03:53:49.749Z,25.6
2018-07-24T03:54:40.302Z,25.6
2018-07-24T03:55:31.022Z,25.6
2018-07-24T03:56:20.794Z,25.6
2018-07-24T03:57:11.178Z,25.6
2018-07-24T03:58:02.417Z,25.6
2018-07-24T03:58:51.617Z,25.6
2018-07-24T03:59:41.373Z,25.6
2018-07-24T04:00:31.116Z,25.6
2018-07-24T04:01:21.753Z,25.6
2018-07-24T04:02:10.766Z,25.6
2018-07-24T04:03:01.639Z,25.6
2018-07-24T04:03:51.021Z,25.6
2018-07-24T04:04:41.271Z,25.6
2018-07-24T04:05:31.268Z,25.6
2018-07-24T04:06:21.706Z,25.6
2018-07-24T04:07:11.077Z,25.6
2018-07-24T04:08:01.543Z,25.6
2018-07-24T04:08:51.863Z,25.6
2018-07-24T04:09:41.312Z,25.6
2018-07-24T04:10:31.781Z,25.6
2018-07-24T04:11:21.223Z,25.6
2018-07-24T04:12:12.009Z,25.6
2018-07-24T04:13:02.670Z,25.6
2018-07-24T04:13:52.723Z,25.6
2018-07-24T04:14:42.486Z,25.6
2018-07-24T04:15:32.276Z,25.6
2018-07-24T04:16:22.383Z,25.6
2018-07-24T04:17:12.390Z,25.6
2018-07-24T04:18:03.046Z,25.6
2018-07-24T04:18:52.857Z,25.6
2018-07-24T04:19:43.168Z,25.6
2018-07-24T04:20:32.982Z,25.6
2018-07-24T04:21:23.010Z,25.6
2018-07-24T04:22:12.797Z,25.6
2018-07-24T04:23:02.902Z,25.6
2018-07-24T04:23:53.502Z,25.6
2018-07-24T04:24:43.257Z,25.6
2018-07-24T04:25:33.600Z,25.6
2018-07-24T04:26:23.162Z,25.6
2018-07-24T04:27:13.455Z,25.6
2018-07-24T04:28:03.497Z,25.6
2018-07-24T04:28:53.304Z,25.6
2018-07-24T04:29:43.696Z,25.6
2018-07-24T04:30:33.724Z,25.6
2018-07-24T04:31:23.692Z,25.6
2018-07-24T04:32:13.688Z,25.6
2018-07-24T04:33:03.464Z,25.6
2018-07-24T04:33:53.977Z,25.6
2018-07-24T04:34:43.770Z,25.6
2018-07-24T04:35:34.387Z,25.6
2018-07-24T04:36:24.378Z,25.6
2018-07-24T04:37:13.977Z,25.6
2018-07-24T04:38:04.312Z,25.6
2018-07-24T04:38:54.344Z,25.6
2018-07-24T04:39:44.511Z,25.6
2018-07-24T04:40:34.229Z,25.6
2018-07-24T04:41:24.286Z,25.5
2018-07-24T04:42:14.372Z,25.6
2018-07-24T04:43:04.709Z,25.6
2018-07-24T04:43:53.892Z,25.6
2018-07-24T04:44:44.589Z,25.6
2018-07-24T04:45:34.656Z,25.5
2018-07-24T04:46:24.694Z,25.6
2018-07-24T04:47:15.024Z,25.6
2018-07-24T04:48:04.827Z,25.6
2018-07-24T04:48:55.120Z,25.6
2018-07-24T04:49:45.167Z,25.6
2018-07-24T04:50:35.546Z,25.6
2018-07-24T04:51:25.303Z,25.7
2018-07-24T04:52:15.420Z,25.8
2018-07-24T04:53:05.732Z,25.8
2018-07-24T04:53:55.525Z,25.8
2018-07-24T04:54:45.310Z,25.8
2018-07-24T04:55:35.389Z,25.8
2018-07-24T04:56:26.049Z,25.8
2018-07-24T04:57:15.769Z,25.8
2018-07-24T04:58:05.838Z,25.8
2018-07-24T04:58:55.653Z,25.8
2018-07-24T04:59:45.408Z,25.8
2018-07-24T05:00:35.773Z,25.8
2018-07-24T05:01:25.835Z,25.8
2018-07-24T05:02:15.890Z,25.8
2018-07-24T05:03:06.240Z,25.7
2018-07-24T05:03:56.605Z,25.8
2018-07-24T05:04:46.341Z,25.7
2018-07-24T05:05:36.695Z,25.7
2018-07-24T05:06:26.764Z,25.7
2018-07-24T05:07:16.884Z,25.7
2018-07-24T05:08:06.625Z,25.7
2018-07-24T05:08:56.951Z,25.7
2018-07-24T05:09:46.484Z,25.7
2018-07-24T05:10:36.000Z,25.7
2018-07-24T05:11:25.837Z,25.7
2018-07-24T05:12:16.171Z,25.7
2018-07-24T05:13:06.725Z,25.6
2018-07-24T05:13:56.309Z,25.7
2018-07-24T05:14:46.572Z,25.6
2018-07-24T05:15:36.453Z,25.7
2018-07-24T05:16:27.284Z,25.7
2018-07-24T05:17:16.077Z,25.6
2018-07-24T05:18:07.096Z,25.6
2018-07-24T05:18:57.166Z,25.6
2018-07-24T05:19:47.499Z,25.6
2018-07-24T05:20:37.846Z,25.6
2018-07-24T05:21:27.344Z,25.6
2018-07-24T05:22:18.013Z,25.6
2018-07-24T05:23:08.097Z,25.6
2018-07-24T05:23:57.981Z,25.6
2018-07-24T05:24:48.138Z,25.6
2018-07-24T05:25:37.198Z,25.6
2018-07-24T05:26:28.284Z,25.6
2018-07-24T05:27:18.061Z,25.6
2018-07-24T05:28:08.446Z,25.6
2018-07-24T05:28:58.197Z,25.6
2018-07-24T05:29:48.585Z,25.6
2018-07-24T05:30:38.051Z,25.6
2018-07-24T05:31:28.663Z,25.6
2018-07-24T05:32:18.435Z,25.6
2018-07-24T05:33:08.463Z,25.6
2018-07-24T05:33:58.671Z,25.6
2018-07-24T05:34:48.707Z,25.6
2018-07-24T05:35:38.412Z,25.6
2018-07-24T05:36:28.780Z,25.6
2018-07-24T05:37:19.135Z,25.5
2018-07-24T05:38:08.621Z,25.5
2018-07-24T05:38:59.276Z,25.6
2018-07-24T05:39:49.033Z,25.6
2018-07-24T05:40:38.927Z,25.5
2018-07-24T05:41:29.411Z,25.5
2018-07-24T05:42:18.499Z,25.6
2018-07-24T05:43:09.296Z,25.5
2018-07-24T05:43:59.140Z,25.5
2018-07-24T05:44:49.742Z,25.5
2018-07-24T05:45:39.744Z,25.5
2018-07-24T05:46:29.826Z,25.5
2018-07-24T05:47:19.900Z,25.5
2018-07-24T05:48:09.949Z,25.5
2018-07-24T05:49:00.148Z,25.5
2018-07-24T05:49:49.028Z,25.5
2018-07-24T05:50:39.376Z,25.5
2018-07-24T05:51:30.189Z,25.5
2018-07-24T05:52:19.988Z,25.5
2018-07-24T05:53:10.360Z,25.5
2018-07-24T05:54:00.414Z,25.5
2018-07-24T05:54:50.201Z,25.5
2018-07-24T05:55:40.095Z,25.5
2018-07-24T05:56:30.291Z,25.5
2018-07-24T05:57:20.376Z,25.5
2018-07-24T05:58:10.162Z,25.5
2018-07-24T05:59:00.494Z,25.5
2018-07-24T05:59:50.836Z,25.5
2018-07-24T06:00:40.944Z,25.5
2018-07-24T06:01:30.723Z,25.5
2018-07-24T06:02:20.490Z,25.4
2018-07-24T06:03:11.110Z,25.5
2018-07-24T06:04:01.183Z,25.5
2018-07-24T06:04:50.677Z,25.5
2018-07-24T06:05:41.021Z,25.4
2018-07-24T06:06:31.124Z,25.5
2018-07-24T06:07:21.520Z,25.5
2018-07-24T06:08:11.501Z,25.4
2018-07-24T06:09:01.547Z,25.5
2018-07-24T06:09:51.661Z,25.4
2018-07-24T06:10:41.691Z,25.4
2018-07-24T06:11:31.209Z,25.4
2018-07-24T06:12:21.588Z,25.4
2018-07-24T06:13:12.466Z,25.4
2018-07-24T06:14:01.667Z,25.4
2018-07-24T06:14:51.940Z,25.4
2018-07-24T06:15:42.096Z,25.4
2018-07-24T06:16:31.582Z,25.4
2018-07-24T06:17:21.789Z,25.4
2018-07-24T06:18:12.018Z,25.4
2018-07-24T06:19:01.784Z,25.4
2018-07-24T06:19:52.083Z,25.4
2018-07-24T06:20:42.155Z,25.4
2018-07-24T06:21:32.240Z,25.4
2018-07-24T06:22:22.053Z,25.4
2018-07-24T06:23:12.114Z,25.4
2018-07-24T06:24:02.734Z,25.4
2018-07-24T06:24:52.756Z,25.4
2018-07-24T06:25:42.825Z,25.4
2018-07-24T06:26:32.352Z,25.4
2018-07-24T06:27:22.449Z,25.4
2018-07-24T06:28:12.740Z,25.3
2018-07-24T06:29:02.807Z,25.4
2018-07-24T06:29:53.154Z,25.4
2018-07-24T06:30:43.195Z,25.3
2018-07-24T06:31:33.275Z,25.4
2018-07-24T06:32:23.110Z,25.4
2018-07-24T06:33:13.111Z,25.3
2018-07-24T06:34:02.922Z,25.3
2018-07-24T06:34:53.705Z,25.3
2018-07-24T06:35:43.066Z,25.4
2018-07-24T06:36:33.228Z,25.3
2018-07-24T06:37:23.463Z,25.3
2018-07-24T06:38:12.659Z,25.3
2018-07-24T06:39:03.320Z,25.3
2018-07-24T06:39:53.680Z,25.3
2018-07-24T06:40:43.701Z,25.3
2018-07-24T06:41:33.818Z,25.3
2018-07-24T06:42:24.124Z,25.3
2018-07-24T06:43:14.193Z,25.3
2018-07-24T06:44:04.294Z,25.3
2018-07-24T06:44:54.035Z,25.3
2018-07-24T06:45:44.125Z,25.3
2018-07-24T06:46:34.191Z,25.3
2018-07-24T06:47:24.247Z,25.3
2018-07-24T06:48:14.022Z,25.3
2018-07-24T06:49:04.386Z,25.3
2018-07-24T06:49:54.676Z,25.3
2018-07-24T06:50:44.743Z,25.3
2018-07-24T06:51:34.650Z,25.3
2018-07-24T06:52:24.895Z,25.3
2018-07-24T06:53:14.686Z,25.3
2018-07-24T06:54:04.715Z,25.3
2018-07-24T06:54:55.081Z,25.3
2018-07-24T06:55:44.943Z,25.3
2018-07-24T06:56:35.824Z,25.3
2018-07-24T06:57:24.997Z,25.3
2018-07-24T06:58:14.784Z,25.3
2018-07-24T06:59:05.401Z,25.3
2018-07-24T06:59:55.485Z,25.3
2018-07-24T07:00:45.503Z,25.3
2018-07-24T07:01:35.295Z,25.3
2018-07-24T07:02:25.652Z,25.3
2018-07-24T07:03:15.912Z,25.3
2018-07-24T07:04:05.517Z,25.3
2018-07-24T07:04:56.062Z,25.3
2018-07-24T07:05:45.366Z,25.3
2018-07-24T07:06:35.986Z,25.3
2018-07-24T07:07:25.573Z,25.3
2018-07-24T07:08:15.532Z,25.3
2018-07-24T07:09:05.905Z,25.3
2018-07-24T07:09:56.237Z,25.3
2018-07-24T07:10:46.019Z,25.3
2018-07-24T07:11:36.374Z,25.3
2018-07-24T07:12:26.151Z,25.3
2018-07-24T07:13:16.841Z,25.3
2018-07-24T07:14:06.538Z,25.3
2018-07-24T07:14:56.080Z,25.3
2018-07-24T07:15:46.130Z,25.3
2018-07-24T07:16:36.530Z,25.3
2018-07-24T07:17:26.531Z,25.3
2018-07-24T07:18:16.873Z,25.3
2018-07-24T07:19:06.969Z,25.3
2018-07-24T07:19:57.020Z,25.3
2018-07-24T07:20:46.816Z,25.3
2018-07-24T07:21:37.153Z,25.3
2018-07-24T07:22:26.635Z,25.3
2018-07-24T07:23:17.683Z,25.3
2018-07-24T07:24:06.771Z,25.3
2018-07-24T07:24:57.109Z,25.3
2018-07-24T07:25:47.451Z,25.3
2018-07-24T07:26:37.583Z,25.3
2018-07-24T07:27:27.609Z,25.3
2018-07-24T07:28:17.758Z,25.2
2018-07-24T07:29:08.191Z,25.2
2018-07-24T07:29:57.478Z,25.2
2018-07-24T07:30:47.574Z,25.3
2018-07-24T07:31:37.393Z,25.2
2018-07-24T07:32:28.272Z,25.3
2018-07-24T07:33:17.731Z,25.2
2018-07-24T07:34:08.086Z,25.2
2018-07-24T07:34:57.306Z,25.2
2018-07-24T07:35:48.196Z,25.3
2018-07-24T07:36:37.532Z,25.2
2018-07-24T07:37:28.405Z,25.2
2018-07-24T07:38:18.403Z,25.3
2018-07-24T07:39:08.439Z,25.2
2018-07-24T07:39:58.251Z,25.2
2018-07-24T07:40:48.642Z,25.2
2018-07-24T07:41:38.176Z,25.2
2018-07-24T07:42:28.448Z,25.3
2018-07-24T07:43:18.576Z,25.2
2018-07-24T07:44:08.590Z,25.2
2018-07-24T07:44:58.943Z,25.2
2018-07-24T07:45:48.985Z,25.2
2018-07-24T07:46:38.834Z,25.2
2018-07-24T07:47:29.159Z,25.2
2018-07-24T07:48:18.931Z,25.2
2018-07-24T07:49:09.279Z,25.2
2018-07-24T07:49:59.343Z,25.2
2018-07-24T07:50:48.821Z,25.2
2018-07-24T07:51:38.921Z,25.2
2018-07-24T07:52:30.056Z,25.2
2018-07-24T07:53:19.298Z,25.2
2018-07-24T07:54:09.649Z,25.2
2018-07-24T07:54:59.146Z,25.2
2018-07-24T07:55:49.500Z,25.2
2018-07-24T07:56:39.850Z,25.2
2018-07-24T07:57:29.942Z,25.2
2018-07-24T07:58:19.424Z,25.3
2018-07-24T07:59:10.037Z,25.2
2018-07-24T07:59:59.815Z,25.2
2018-07-24T08:00:50.167Z,25.2
2018-07-24T08:01:40.055Z,25.2
2018-07-24T08:02:30.005Z,25.2
2018-07-24T08:03:20.120Z,25.2
2018-07-24T08:04:09.699Z,25.2
2018-07-24T08:05:00.495Z,25.2
2018-07-24T08:05:49.994Z,25.2
2018-07-24T08:06:40.644Z,25.2
2018-07-24T08:07:30.634Z,25.2
2018-07-24T08:08:20.749Z,25.2
2018-07-24T08:09:10.790Z,25.2
2018-07-24T08:10:00.572Z,25.2
2018-07-24T08:10:50.946Z,25.2
2018-07-24T08:11:40.993Z,25.1
2018-07-24T08:12:31.687Z,25.2
2018-07-24T08:13:21.141Z,25.2
2018-07-24T08:14:10.864Z,25.2
2018-07-24T08:15:00.672Z,25.2
2018-07-24T08:15:50.222Z,25.2
2018-07-24T08:16:41.398Z,25.2
2018-07-24T08:17:31.166Z,25.2
2018-07-24T08:18:21.479Z,25.2
2018-07-24T08:19:10.994Z,25.2
2018-07-24T08:20:01.632Z,25.2
2018-07-24T08:20:51.691Z,25.2
2018-07-24T08:21:41.490Z,25.2
2018-07-24T08:22:31.564Z,25.2
2018-07-24T08:23:21.915Z,25.2
2018-07-24T08:24:11.415Z,25.2
2018-07-24T08:25:01.499Z,25.2
2018-07-24T08:25:51.832Z,25.2
2018-07-24T08:26:42.164Z,25.1
2018-07-24T08:27:32.251Z,25.2
2018-07-24T08:28:21.997Z,25.2
2018-07-24T08:29:26.749Z,25.1
2018-07-24T08:30:01.564Z,25.1
2018-07-24T08:30:52.249Z,25.2
2018-07-24T08:31:42.286Z,25.1
2018-07-24T08:32:32.349Z,25.3
2018-07-24T08:33:22.121Z,35.6
2018-07-24T08:34:12.459Z,47.9
2018-07-24T08:35:02.816Z,50.3
2018-07-24T08:35:52.854Z,49.1
2018-07-24T08:36:42.358Z,48.4
2018-07-24T08:37:32.987Z,47.9
2018-07-24T08:38:23.045Z,47.4
2018-07-24T08:39:12.573Z,46.9
2018-07-24T08:40:02.654Z,46.4
2018-07-24T08:40:53.007Z,45.9
2018-07-24T08:41:43.311Z,45.4
2018-07-24T08:42:33.051Z,44.9
2018-07-24T08:43:23.146Z,44.5
2018-07-24T08:44:13.268Z,44.1
2018-07-24T08:45:03.588Z,43.6
2018-07-24T08:45:53.616Z,43.2
2018-07-24T08:46:43.433Z,42.8
2018-07-24T08:47:33.483Z,42.4
2018-07-24T08:48:23.861Z,41.9
2018-07-24T08:49:13.973Z,41.7
2018-07-24T08:50:04.021Z,41.3
2018-07-24T08:50:54.018Z,46.3
2018-07-24T08:51:44.141Z,51.6
2018-07-24T08:52:34.129Z,51.6
2018-07-24T08:53:26.176Z,50.6
2018-07-24T08:54:15.858Z,48.8
2018-07-24T08:55:06.083Z,47.3
2018-07-24T08:55:54.148Z,46.2
2018-07-24T08:56:43.912Z,45.6
2018-07-24T08:57:34.607Z,45
2018-07-24T08:58:24.602Z,44.5
2018-07-24T08:59:14.378Z,44.1
2018-07-24T09:00:04.444Z,43.6
2018-07-24T09:00:54.823Z,43.2
2018-07-24T09:01:44.861Z,42.8
2018-07-24T09:02:34.369Z,42.4
2018-07-24T09:03:25.007Z,42.1
2018-07-24T09:04:15.178Z,41.7
2018-07-24T09:05:04.274Z,41.4
2018-07-24T09:05:54.631Z,41
2018-07-24T09:06:44.961Z,40.7
2018-07-24T09:07:34.750Z,40.3
2018-07-24T09:08:25.406Z,40.1
2018-07-24T09:09:15.180Z,39.7
2018-07-24T09:10:05.296Z,39.4
2018-07-24T09:10:55.589Z,39.1
2018-07-24T09:11:45.366Z,38.8
2018-07-24T09:12:35.712Z,38.6
2018-07-24T09:13:25.517Z,38.3
2018-07-24T09:14:15.824Z,38
2018-07-24T09:15:05.616Z,37.8
2018-07-24T09:15:55.961Z,37.6
2018-07-24T09:16:46.018Z,37.3
2018-07-24T09:17:36.076Z,37
2018-07-24T09:18:26.160Z,36.8
2018-07-24T09:19:15.940Z,36.6
2018-07-24T09:20:06.004Z,36.3
2018-07-24T09:20:56.444Z,36.1
2018-07-24T09:21:46.391Z,36.1
2018-07-24T09:22:35.948Z,39
2018-07-24T09:23:26.510Z,45.2
2018-07-24T09:24:16.065Z,50.7
2018-07-24T09:25:06.664Z,52
2018-07-24T09:25:56.454Z,51.3
2018-07-24T09:26:46.517Z,49.3
2018-07-24T09:27:36.852Z,47.5
2018-07-24T09:28:26.907Z,47.2
2018-07-24T09:29:16.500Z,48.8
2018-07-24T09:30:06.773Z,51.3
2018-07-24T09:30:57.109Z,53.6
2018-07-24T09:31:47.182Z,55.1
2018-07-24T09:32:36.977Z,55.5
2018-07-24T09:33:27.054Z,55.1
2018-07-24T09:34:17.139Z,54.3
2018-07-24T09:35:07.447Z,53.8
2018-07-24T09:35:57.496Z,53.8
2018-07-24T09:36:47.321Z,53.9
2018-07-24T09:37:37.399Z,54
2018-07-24T09:38:27.716Z,54
2018-07-24T09:39:17.787Z,53.8
2018-07-24T09:40:07.864Z,53.6
2018-07-24T09:40:57.624Z,53.4
2018-07-24T09:41:48.044Z,53.4
2018-07-24T09:42:38.032Z,53.5
2018-07-24T09:43:27.829Z,53.7
2018-07-24T09:44:17.939Z,53.8
2018-07-24T09:45:08.265Z,53.9
2018-07-24T09:45:57.932Z,53.8
2018-07-24T09:46:48.088Z,53.7
2018-07-24T09:47:38.444Z,53.6
2018-07-24T09:48:28.543Z,53.6
2018-07-24T09:49:18.263Z,53.8
2018-07-24T09:50:08.611Z,54
2018-07-24T09:50:58.703Z,54.3
2018-07-24T09:51:48.734Z,54.5
2018-07-24T09:52:38.847Z,54.6
2018-07-24T09:53:28.276Z,54.7
2018-07-24T09:54:18.950Z,54.7
2018-07-24T09:55:08.550Z,54.8
2018-07-24T09:55:59.059Z,54.9
2018-07-24T09:56:49.112Z,55.1
2018-07-24T09:57:39.211Z,55.4
2018-07-24T09:58:28.968Z,55.7
2018-07-24T09:59:19.813Z,55.7
2018-07-24T10:00:09.401Z,55.6
2018-07-24T10:00:59.012Z,55.5
2018-07-24T10:01:49.219Z,55.4
2018-07-24T10:02:39.281Z,55.4
2018-07-24T10:03:29.404Z,55.7
2018-07-24T10:04:19.142Z,55.9
2018-07-24T10:05:09.775Z,56.1
2018-07-24T10:05:59.870Z,56.2
2018-07-24T10:06:49.949Z,56.1
2018-07-24T10:07:39.464Z,55.8
2018-07-24T10:08:29.768Z,55.5
2018-07-24T10:09:20.152Z,55.2
2018-07-24T10:10:10.217Z,55
2018-07-24T10:10:59.870Z,54.9
2018-07-24T10:11:50.053Z,54.9
2018-07-24T10:12:40.790Z,55.1
2018-07-24T10:13:30.412Z,55.2
2018-07-24T10:14:19.657Z,55.2
2018-07-24T10:15:10.292Z,55
2018-07-24T10:15:59.756Z,54.9
2018-07-24T10:16:51.211Z,54.8
2018-07-24T10:17:40.465Z,54.8
2018-07-24T10:18:30.825Z,54.9
2018-07-24T10:19:20.072Z,55.1
2018-07-24T10:20:10.165Z,55.3
2018-07-24T10:21:00.491Z,55.6
2018-07-24T10:21:51.076Z,56
2018-07-24T10:22:41.129Z,56.5
2018-07-24T10:23:31.191Z,56.6
2018-07-24T10:24:20.617Z,56.3
2018-07-24T10:25:11.318Z,55.9
2018-07-24T10:26:01.462Z,55.5
2018-07-24T10:26:50.963Z,55.3
2018-07-24T10:27:41.231Z,55.3
2018-07-24T10:28:31.630Z,55.7
2018-07-24T10:29:21.407Z,56.7
2018-07-24T10:30:11.443Z,58
2018-07-24T10:31:01.791Z,58.9
2018-07-24T10:31:51.291Z,58.9
2018-07-24T10:32:41.958Z,58.3
2018-07-24T10:33:31.718Z,58
2018-07-24T10:34:21.768Z,58.1
2018-07-24T10:35:12.146Z,58
2018-07-24T10:36:02.217Z,57.9
2018-07-24T10:37:42.061Z,59.3
2018-07-24T10:38:32.103Z,59.6
2018-07-24T10:39:21.925Z,59.6
2018-07-24T10:40:12.563Z,60.4
2018-07-24T10:41:02.631Z,60.9
2018-07-24T10:41:51.781Z,61.2
2018-07-24T10:42:42.439Z,61.6
2018-07-24T10:43:32.507Z,62.2
2018-07-24T10:44:22.823Z,62
2018-07-24T10:45:12.626Z,61.9
2018-07-24T10:46:02.724Z,62.8
2018-07-24T10:46:52.463Z,63.3
2018-07-24T10:47:43.109Z,63.6
2018-07-24T10:48:32.875Z,62.9
2018-07-24T10:49:23.373Z,62.1
2018-07-24T10:50:12.729Z,61.3
2018-07-24T10:51:03.425Z,60.8
2018-07-24T10:51:53.151Z,60.6
2018-07-24T10:52:43.196Z,60.6
2018-07-24T10:53:33.293Z,60.4
2018-07-24T10:54:22.782Z,60.1
2018-07-24T10:55:13.124Z,59.6
2018-07-24T10:56:03.824Z,59.6
2018-07-24T10:56:53.491Z,60.6
2018-07-24T10:57:43.831Z,61.8
2018-07-24T10:58:33.621Z,62.9
2018-07-24T10:59:23.698Z,63.3
2018-07-24T11:00:14.042Z,63.1
2018-07-24T11:01:03.833Z,62.8
2018-07-24T11:01:54.153Z,62.7
2018-07-24T11:02:43.451Z,63.1
2018-07-24T11:03:34.383Z,64.1
2018-07-24T11:04:24.373Z,65.3
2018-07-24T11:05:14.086Z,65.7
2018-07-24T11:06:04.248Z,64.8
2018-07-24T11:06:54.574Z,63.6
2018-07-24T11:07:44.348Z,62.3